PWSweather.com
Personal Weather Stations
Station Observations
SWHWX01
St AppolinardFR 38160

St AppolinardFR 38160

Lat: 45.191, Lon: 5.268

Elevation: 1460

Station Type: Davis Vantage Pro2 Plus

Latest ConditionsUpdated 4:30:03 PM GMT+01:01 Sunday, Sep 22, 2019
Currently Today's Max Today's Min Today's Average
Temperature 70.1°F21.2°C 73.5°F23.1°C 58.6°F14.8°C 64.6°F18.1°C
Dew Point 61.4°F16.3°C 61.5°F16.4°C 55.4°F13.0°C 58.4°F14.7°C
Winds 10.5 mph WSW16.9 kmh WSW 10.5 mph -16.9 kmh - - 2.4 mph 3.9 kmh
Wind Gusts 13.0 mph20.9 kmh 13.0 mph20.9 kmh - -
Humidity 74% 91% 66% 81%
Pressure 29.83 in1010.2 mb 29.90 in1012.5 mb 29.82 in1009.8 mb -
Hour Temp Dew Point Humidity Winds Wind Gusts Pressure Precip Precip Rate Daily Precip Total
04:30 PM 70.1°F21.2°C 61.4°F16.3°C 74% 10.5 mph WSW16.9 kmh WSW 13.0 mph20.9 kmh 29.83 in1010.2 mb - 0.00 in0.0 mm 0.00 in0.0 mm
04:00 PM 69.9°F21.1°C 61.2°F16.2°C 74% 6.2 mph WSW10.0 kmh WSW 6.0 mph9.7 kmh 29.83 in1010.2 mb - 0.00 in0.0 mm 0.00 in0.0 mm
03:30 PM 71.2°F21.8°C 61.3°F16.3°C 71% 4.3 mph WSW6.9 kmh WSW 8.0 mph12.9 kmh 29.82 in1009.8 mb - 0.00 in0.0 mm 0.00 in0.0 mm
03:00 PM 72.1°F22.3°C 61.4°F16.3°C 69% 7.6 mph SW12.2 kmh SW 12.0 mph19.3 kmh 29.82 in1009.8 mb - 0.00 in0.0 mm 0.00 in0.0 mm
02:30 PM 72.4°F22.4°C 61.2°F16.2°C 68% 4.0 mph SW6.4 kmh SW 11.0 mph17.7 kmh 29.82 in1009.8 mb - 0.00 in0.0 mm 0.00 in0.0 mm
02:00 PM 72.7°F22.6°C 61.5°F16.4°C 68% 3.6 mph S5.8 kmh S 7.0 mph11.3 kmh 29.82 in1009.8 mb - 0.00 in0.0 mm 0.00 in0.0 mm
01:30 PM 73.5°F23.1°C 61.4°F16.3°C 66% 1.3 mph SW2.1 kmh SW 2.0 mph3.2 kmh 29.83 in1010.2 mb - 0.00 in0.0 mm 0.00 in0.0 mm
01:00 PM 71.7°F22.1°C 60.6°F15.9°C 68% 4.1 mph SSW6.6 kmh SSW 7.0 mph11.3 kmh 29.83 in1010.2 mb - 0.00 in0.0 mm 0.00 in0.0 mm
12:30 PM 71.0°F21.7°C 59.9°F15.5°C 68% 6.8 mph W10.9 kmh W 8.0 mph12.9 kmh 29.84 in1010.5 mb - 0.00 in0.0 mm 0.00 in0.0 mm
12:00 PM 71.3°F21.8°C 61.1°F16.2°C 70% 3.3 mph SW5.3 kmh SW 10.0 mph16.1 kmh 29.84 in1010.5 mb - 0.00 in0.0 mm 0.00 in0.0 mm
11:30 AM 69.3°F20.7°C 59.9°F15.5°C 72% 6.8 mph WSW10.9 kmh WSW 9.0 mph14.5 kmh 29.85 in1010.8 mb - 0.00 in0.0 mm 0.00 in0.0 mm
11:00 AM 70.5°F21.4°C 61.0°F16.1°C 72% 4.7 mph S7.6 kmh S 8.0 mph12.9 kmh 29.85 in1010.8 mb - 0.00 in0.0 mm 0.00 in0.0 mm
10:30 AM 68.8°F20.4°C 60.9°F16.1°C 76% 2.9 mph WSW4.7 kmh WSW 8.0 mph12.9 kmh 29.86 in1011.2 mb - 0.00 in0.0 mm 0.00 in0.0 mm
10:00 AM 67.9°F19.9°C 59.7°F15.4°C 75% 6.6 mph WSW10.6 kmh WSW 10.0 mph16.1 kmh 29.87 in1011.5 mb - 0.00 in0.0 mm 0.00 in0.0 mm
09:30 AM 65.5°F18.6°C 59.5°F15.3°C 81% 1.1 mph WSW1.8 kmh WSW 3.0 mph4.8 kmh 29.87 in1011.5 mb - 0.00 in0.0 mm 0.00 in0.0 mm
09:00 AM 62.3°F16.8°C 58.1°F14.5°C 86% 0.4 mph WSW0.6 kmh WSW -- 29.88 in1011.9 mb - 0.00 in0.0 mm 0.00 in0.0 mm
08:30 AM 61.4°F16.3°C 57.8°F14.3°C 88% 0.3 mph WSW0.5 kmh WSW -- 29.88 in1011.9 mb - 0.00 in0.0 mm 0.00 in0.0 mm
08:00 AM 60.6°F15.9°C 57.3°F14.1°C 89% Calm Calm -- 29.87 in1011.5 mb - 0.00 in0.0 mm 0.00 in0.0 mm
07:30 AM 60.0°F15.6°C 56.7°F13.7°C 89% Calm Calm -- 29.87 in1011.5 mb - 0.00 in0.0 mm 0.00 in0.0 mm
07:00 AM 59.5°F15.3°C 56.3°F13.5°C 89% Calm Calm -- 29.87 in1011.5 mb - 0.00 in0.0 mm 0.00 in0.0 mm
06:30 AM 59.6°F15.3°C 56.3°F13.5°C 89% Calm Calm -- 29.86 in1011.2 mb - 0.00 in0.0 mm 0.00 in0.0 mm
06:00 AM 59.7°F15.4°C 56.8°F13.8°C 90% 2.0 mph WSW3.2 kmh WSW 3.0 mph4.8 kmh 29.87 in1011.5 mb - 0.00 in0.0 mm 0.00 in0.0 mm
05:30 AM 59.0°F15.0°C 56.4°F13.6°C 91% Calm Calm -- 29.87 in1011.5 mb - 0.00 in0.0 mm 0.00 in0.0 mm
05:00 AM 58.6°F14.8°C 55.7°F13.2°C 90% Calm Calm -- 29.87 in1011.5 mb - 0.00 in0.0 mm 0.00 in0.0 mm
04:30 AM 60.1°F15.6°C 56.8°F13.8°C 89% 1.1 mph WSW1.8 kmh WSW 3.0 mph4.8 kmh 29.88 in1011.9 mb - 0.00 in0.0 mm 0.00 in0.0 mm
04:00 AM 59.0°F15.0°C 56.1°F13.4°C 90% 0.2 mph WSW0.3 kmh WSW 2.0 mph3.2 kmh 29.88 in1011.9 mb - 0.00 in0.0 mm 0.00 in0.0 mm
03:30 AM 58.7°F14.8°C 55.4°F13.0°C 89% 1.9 mph WSW3.1 kmh WSW 2.0 mph3.2 kmh 29.88 in1011.9 mb - 0.00 in0.0 mm 0.00 in0.0 mm
03:00 AM 59.0°F15.0°C 56.1°F13.4°C 90% Calm Calm -- 29.89 in1012.2 mb - 0.00 in0.0 mm 0.00 in0.0 mm
02:30 AM 59.2°F15.1°C 56.3°F13.5°C 90% Calm Calm -- 29.89 in1012.2 mb - 0.00 in0.0 mm 0.00 in0.0 mm
02:00 AM 59.4°F15.2°C 56.5°F13.6°C 90% 1.1 mph WSW1.8 kmh WSW 2.0 mph3.2 kmh 29.90 in1012.5 mb - 0.00 in0.0 mm 0.00 in0.0 mm
01:30 AM 59.8°F15.4°C 56.2°F13.4°C 88% Calm Calm -- 29.90 in1012.5 mb - 0.00 in0.0 mm 0.00 in0.0 mm
01:00 AM 59.8°F15.4°C 56.2°F13.4°C 88% Calm Calm 1.0 mph1.6 kmh 29.89 in1012.2 mb - 0.00 in0.0 mm 0.00 in0.0 mm
12:30 AM 60.8°F16.0°C 56.9°F13.8°C 87% 1.4 mph WSW2.3 kmh WSW 3.0 mph4.8 kmh 29.89 in1012.2 mb - 0.00 in0.0 mm 0.00 in0.0 mm
12:00 AM 60.9°F16.1°C 57.3°F14.1°C 88% Calm Calm -- 29.89 in1012.2 mb - 0.00 in0.0 mm 0.00 in0.0 mm